sensor_id;sensor_type;location;lat;lon;timestamp;P1;durP1;ratioP1;P2;durP2;ratioP2
4323;SDS011;2175;51.018;6.994;2022-08-19T00:02:23;22.57;;;20.30;;
4323;SDS011;2175;51.018;6.994;2022-08-19T00:04:48;23.53;;;21.03;;
4323;SDS011;2175;51.018;6.994;2022-08-19T00:07:17;22.70;;;20.07;;
4323;SDS011;2175;51.018;6.994;2022-08-19T00:09:44;26.27;;;20.33;;
4323;SDS011;2175;51.018;6.994;2022-08-19T00:12:10;23.43;;;20.90;;
4323;SDS011;2175;51.018;6.994;2022-08-19T00:14:36;21.43;;;19.33;;
4323;SDS011;2175;51.018;6.994;2022-08-19T00:17:03;24.30;;;20.00;;
4323;SDS011;2175;51.018;6.994;2022-08-19T00:19:29;23.73;;;20.40;;
4323;SDS011;2175;51.018;6.994;2022-08-19T00:21:56;23.20;;;20.83;;
4323;SDS011;2175;51.018;6.994;2022-08-19T00:24:22;22.43;;;20.10;;
4323;SDS011;2175;51.018;6.994;2022-08-19T00:26:47;22.50;;;20.23;;
4323;SDS011;2175;51.018;6.994;2022-08-19T00:29:15;22.90;;;20.50;;
4323;SDS011;2175;51.018;6.994;2022-08-19T00:31:43;23.07;;;20.63;;
4323;SDS011;2175;51.018;6.994;2022-08-19T00:34:10;22.40;;;20.23;;
4323;SDS011;2175;51.018;6.994;2022-08-19T00:36:37;24.10;;;21.60;;
4323;SDS011;2175;51.018;6.994;2022-08-19T00:39:03;23.60;;;19.90;;
4323;SDS011;2175;51.018;6.994;2022-08-19T00:41:29;23.37;;;20.90;;
4323;SDS011;2175;51.018;6.994;2022-08-19T00:46:29;23.63;;;21.20;;
4323;SDS011;2175;51.018;6.994;2022-08-19T00:48:56;25.07;;;22.37;;
4323;SDS011;2175;51.018;6.994;2022-08-19T00:51:23;24.30;;;21.80;;
4323;SDS011;2175;51.018;6.994;2022-08-19T00:53:52;23.13;;;20.83;;
4323;SDS011;2175;51.018;6.994;2022-08-19T00:56:18;24.23;;;21.73;;
4323;SDS011;2175;51.018;6.994;2022-08-19T00:58:44;23.10;;;20.70;;
4323;SDS011;2175;51.018;6.994;2022-08-19T01:01:10;22.30;;;19.93;;
4323;SDS011;2175;51.018;6.994;2022-08-19T01:03:36;24.20;;;20.87;;
4323;SDS011;2175;51.018;6.994;2022-08-19T01:06:01;24.90;;;20.37;;
4323;SDS011;2175;51.018;6.994;2022-08-19T01:08:27;21.13;;;19.03;;
4323;SDS011;2175;51.018;6.994;2022-08-19T01:10:54;23.33;;;21.10;;
4323;SDS011;2175;51.018;6.994;2022-08-19T01:13:23;22.53;;;20.23;;
4323;SDS011;2175;51.018;6.994;2022-08-19T01:15:56;23.50;;;21.10;;
4323;SDS011;2175;51.018;6.994;2022-08-19T01:18:25;22.50;;;20.10;;
4323;SDS011;2175;51.018;6.994;2022-08-19T01:20:53;23.07;;;20.87;;
4323;SDS011;2175;51.018;6.994;2022-08-19T01:23:22;24.70;;;22.00;;
4323;SDS011;2175;51.018;6.994;2022-08-19T01:26:07;22.40;;;20.23;;
4323;SDS011;2175;51.018;6.994;2022-08-19T01:28:36;23.50;;;21.20;;
4323;SDS011;2175;51.018;6.994;2022-08-19T01:31:03;23.73;;;21.30;;
4323;SDS011;2175;51.018;6.994;2022-08-19T01:33:29;24.13;;;21.73;;
4323;SDS011;2175;51.018;6.994;2022-08-19T01:36:22;24.10;;;21.70;;
4323;SDS011;2175;51.018;6.994;2022-08-19T01:38:48;24.10;;;21.20;;
4323;SDS011;2175;51.018;6.994;2022-08-19T01:41:14;24.27;;;21.50;;
4323;SDS011;2175;51.018;6.994;2022-08-19T01:43:42;22.17;;;19.97;;
4323;SDS011;2175;51.018;6.994;2022-08-19T01:46:08;24.77;;;22.27;;
4323;SDS011;2175;51.018;6.994;2022-08-19T01:48:34;24.70;;;21.90;;
4323;SDS011;2175;51.018;6.994;2022-08-19T01:51:02;24.23;;;21.77;;
4323;SDS011;2175;51.018;6.994;2022-08-19T01:53:28;24.30;;;21.80;;
4323;SDS011;2175;51.018;6.994;2022-08-19T01:55:54;25.57;;;22.40;;
4323;SDS011;2175;51.018;6.994;2022-08-19T01:58:21;24.30;;;21.70;;
4323;SDS011;2175;51.018;6.994;2022-08-19T02:00:50;24.00;;;21.63;;
4323;SDS011;2175;51.018;6.994;2022-08-19T02:03:16;24.60;;;22.00;;
4323;SDS011;2175;51.018;6.994;2022-08-19T02:05:42;24.13;;;21.73;;
4323;SDS011;2175;51.018;6.994;2022-08-19T02:08:09;23.83;;;21.40;;
4323;SDS011;2175;51.018;6.994;2022-08-19T02:10:37;24.83;;;22.30;;
4323;SDS011;2175;51.018;6.994;2022-08-19T02:13:05;23.97;;;21.20;;
4323;SDS011;2175;51.018;6.994;2022-08-19T02:15:31;24.03;;;21.60;;
4323;SDS011;2175;51.018;6.994;2022-08-19T02:17:57;24.80;;;22.30;;
4323;SDS011;2175;51.018;6.994;2022-08-19T02:20:23;25.13;;;22.63;;
4323;SDS011;2175;51.018;6.994;2022-08-19T02:22:49;25.57;;;22.87;;
4323;SDS011;2175;51.018;6.994;2022-08-19T02:25:14;25.07;;;22.40;;
4323;SDS011;2175;51.018;6.994;2022-08-19T02:27:40;26.30;;;21.63;;
4323;SDS011;2175;51.018;6.994;2022-08-19T02:30:08;23.27;;;20.87;;
4323;SDS011;2175;51.018;6.994;2022-08-19T02:32:36;24.07;;;21.70;;
4323;SDS011;2175;51.018;6.994;2022-08-19T02:35:02;23.70;;;21.30;;
4323;SDS011;2175;51.018;6.994;2022-08-19T02:37:28;24.27;;;20.83;;
4323;SDS011;2175;51.018;6.994;2022-08-19T02:40:12;24.03;;;21.73;;
4323;SDS011;2175;51.018;6.994;2022-08-19T02:42:38;23.20;;;20.83;;
4323;SDS011;2175;51.018;6.994;2022-08-19T02:45:06;24.80;;;22.20;;
4323;SDS011;2175;51.018;6.994;2022-08-19T02:47:32;24.40;;;21.93;;
4323;SDS011;2175;51.018;6.994;2022-08-19T02:49:59;23.23;;;20.40;;
4323;SDS011;2175;51.018;6.994;2022-08-19T02:52:26;24.50;;;21.90;;
4323;SDS011;2175;51.018;6.994;2022-08-19T02:54:52;23.97;;;21.40;;
4323;SDS011;2175;51.018;6.994;2022-08-19T02:57:17;23.60;;;21.20;;
4323;SDS011;2175;51.018;6.994;2022-08-19T02:59:43;24.20;;;21.80;;
4323;SDS011;2175;51.018;6.994;2022-08-19T03:02:09;27.80;;;22.50;;
4323;SDS011;2175;51.018;6.994;2022-08-19T03:04:34;26.00;;;23.23;;
4323;SDS011;2175;51.018;6.994;2022-08-19T03:07:00;26.90;;;21.73;;
4323;SDS011;2175;51.018;6.994;2022-08-19T03:09:25;24.57;;;21.70;;
4323;SDS011;2175;51.018;6.994;2022-08-19T03:11:51;24.00;;;21.60;;
4323;SDS011;2175;51.018;6.994;2022-08-19T03:14:17;24.23;;;21.63;;
4323;SDS011;2175;51.018;6.994;2022-08-19T03:16:47;22.57;;;20.37;;
4323;SDS011;2175;51.018;6.994;2022-08-19T03:19:15;23.53;;;21.23;;
4323;SDS011;2175;51.018;6.994;2022-08-19T03:21:43;23.67;;;21.17;;
4323;SDS011;2175;51.018;6.994;2022-08-19T03:24:09;23.63;;;20.90;;
4323;SDS011;2175;51.018;6.994;2022-08-19T03:26:38;28.70;;;21.90;;
4323;SDS011;2175;51.018;6.994;2022-08-19T03:29:09;23.27;;;20.87;;
4323;SDS011;2175;51.018;6.994;2022-08-19T03:31:36;23.57;;;20.37;;
4323;SDS011;2175;51.018;6.994;2022-08-19T03:34:03;23.57;;;21.03;;
4323;SDS011;2175;51.018;6.994;2022-08-19T03:36:29;24.13;;;21.67;;
4323;SDS011;2175;51.018;6.994;2022-08-19T03:38:56;24.53;;;21.00;;
4323;SDS011;2175;51.018;6.994;2022-08-19T03:41:25;24.30;;;21.83;;
4323;SDS011;2175;51.018;6.994;2022-08-19T03:44:01;24.10;;;21.60;;
4323;SDS011;2175;51.018;6.994;2022-08-19T03:46:28;25.20;;;22.20;;
4323;SDS011;2175;51.018;6.994;2022-08-19T03:48:56;23.57;;;21.27;;
4323;SDS011;2175;51.018;6.994;2022-08-19T03:53:49;23.50;;;21.17;;
4323;SDS011;2175;51.018;6.994;2022-08-19T03:56:16;24.37;;;21.83;;
4323;SDS011;2175;51.018;6.994;2022-08-19T03:58:42;24.87;;;22.10;;
4323;SDS011;2175;51.018;6.994;2022-08-19T04:01:13;24.57;;;22.07;;
4323;SDS011;2175;51.018;6.994;2022-08-19T04:03:41;24.93;;;21.43;;
4323;SDS011;2175;51.018;6.994;2022-08-19T04:08:39;24.77;;;22.10;;
4323;SDS011;2175;51.018;6.994;2022-08-19T04:11:09;23.37;;;20.87;;
4323;SDS011;2175;51.018;6.994;2022-08-19T04:13:37;24.10;;;21.60;;
4323;SDS011;2175;51.018;6.994;2022-08-19T04:16:03;25.20;;;21.70;;
4323;SDS011;2175;51.018;6.994;2022-08-19T04:18:30;25.23;;;22.30;;
4323;SDS011;2175;51.018;6.994;2022-08-19T04:20:57;25.40;;;22.77;;
4323;SDS011;2175;51.018;6.994;2022-08-19T04:23:23;25.77;;;23.07;;
4323;SDS011;2175;51.018;6.994;2022-08-19T04:25:49;23.63;;;21.20;;
4323;SDS011;2175;51.018;6.994;2022-08-19T04:28:15;24.53;;;21.93;;
4323;SDS011;2175;51.018;6.994;2022-08-19T04:30:42;27.80;;;22.07;;
4323;SDS011;2175;51.018;6.994;2022-08-19T04:33:10;25.73;;;21.90;;
4323;SDS011;2175;51.018;6.994;2022-08-19T04:35:41;24.47;;;21.87;;
4323;SDS011;2175;51.018;6.994;2022-08-19T04:38:10;26.00;;;22.70;;
4323;SDS011;2175;51.018;6.994;2022-08-19T04:40:40;23.30;;;20.90;;
4323;SDS011;2175;51.018;6.994;2022-08-19T04:43:26;27.27;;;22.63;;
4323;SDS011;2175;51.018;6.994;2022-08-19T04:45:52;25.33;;;22.80;;
4323;SDS011;2175;51.018;6.994;2022-08-19T04:48:18;26.20;;;23.50;;
4323;SDS011;2175;51.018;6.994;2022-08-19T04:50:50;26.73;;;23.90;;
4323;SDS011;2175;51.018;6.994;2022-08-19T04:53:32;26.27;;;23.33;;
4323;SDS011;2175;51.018;6.994;2022-08-19T04:55:59;26.27;;;23.40;;
4323;SDS011;2175;51.018;6.994;2022-08-19T04:58:29;26.10;;;23.00;;
4323;SDS011;2175;51.018;6.994;2022-08-19T05:00:55;25.57;;;22.97;;
4323;SDS011;2175;51.018;6.994;2022-08-19T05:03:20;25.97;;;23.33;;
4323;SDS011;2175;51.018;6.994;2022-08-19T05:05:47;26.07;;;23.37;;
4323;SDS011;2175;51.018;6.994;2022-08-19T05:08:14;25.00;;;22.40;;
4323;SDS011;2175;51.018;6.994;2022-08-19T05:10:45;24.13;;;21.67;;
4323;SDS011;2175;51.018;6.994;2022-08-19T05:13:14;30.63;;;22.00;;
4323;SDS011;2175;51.018;6.994;2022-08-19T05:15:41;29.23;;;23.33;;
4323;SDS011;2175;51.018;6.994;2022-08-19T05:18:07;24.97;;;22.27;;
4323;SDS011;2175;51.018;6.994;2022-08-19T05:20:52;25.30;;;21.97;;
4323;SDS011;2175;51.018;6.994;2022-08-19T05:23:36;24.83;;;21.97;;
4323;SDS011;2175;51.018;6.994;2022-08-19T05:26:02;47.47;;;25.83;;
4323;SDS011;2175;51.018;6.994;2022-08-19T05:28:28;34.40;;;23.73;;
4323;SDS011;2175;51.018;6.994;2022-08-19T05:30:54;49.97;;;23.20;;
4323;SDS011;2175;51.018;6.994;2022-08-19T05:33:20;57.80;;;24.97;;
4323;SDS011;2175;51.018;6.994;2022-08-19T05:35:47;40.03;;;24.50;;
4323;SDS011;2175;51.018;6.994;2022-08-19T05:38:14;39.90;;;25.70;;
4323;SDS011;2175;51.018;6.994;2022-08-19T05:40:41;35.33;;;25.07;;
4323;SDS011;2175;51.018;6.994;2022-08-19T05:43:14;39.57;;;29.70;;
4323;SDS011;2175;51.018;6.994;2022-08-19T05:45:41;61.07;;;45.60;;
4323;SDS011;2175;51.018;6.994;2022-08-19T05:48:07;75.60;;;57.10;;
4323;SDS011;2175;51.018;6.994;2022-08-19T05:50:36;70.17;;;57.43;;
4323;SDS011;2175;51.018;6.994;2022-08-19T05:53:03;73.07;;;57.80;;
4323;SDS011;2175;51.018;6.994;2022-08-19T05:55:29;76.37;;;60.20;;
4323;SDS011;2175;51.018;6.994;2022-08-19T05:57:54;70.13;;;58.47;;
4323;SDS011;2175;51.018;6.994;2022-08-19T06:00:20;70.50;;;59.43;;
4323;SDS011;2175;51.018;6.994;2022-08-19T06:02:46;76.10;;;58.10;;
4323;SDS011;2175;51.018;6.994;2022-08-19T06:05:11;77.57;;;56.37;;
4323;SDS011;2175;51.018;6.994;2022-08-19T06:07:38;73.60;;;55.80;;
4323;SDS011;2175;51.018;6.994;2022-08-19T06:10:05;73.90;;;56.67;;
4323;SDS011;2175;51.018;6.994;2022-08-19T06:12:33;76.10;;;54.53;;
4323;SDS011;2175;51.018;6.994;2022-08-19T06:15:04;68.60;;;55.00;;
4323;SDS011;2175;51.018;6.994;2022-08-19T06:17:34;65.20;;;50.37;;
4323;SDS011;2175;51.018;6.994;2022-08-19T06:20:01;68.57;;;54.40;;
4323;SDS011;2175;51.018;6.994;2022-08-19T06:22:28;63.30;;;53.00;;
4323;SDS011;2175;51.018;6.994;2022-08-19T06:24:55;64.93;;;53.13;;
4323;SDS011;2175;51.018;6.994;2022-08-19T06:27:20;65.63;;;53.03;;
4323;SDS011;2175;51.018;6.994;2022-08-19T06:29:46;60.30;;;51.00;;
4323;SDS011;2175;51.018;6.994;2022-08-19T06:32:14;64.23;;;50.50;;
4323;SDS011;2175;51.018;6.994;2022-08-19T06:34:41;61.53;;;50.80;;
4323;SDS011;2175;51.018;6.994;2022-08-19T06:37:07;71.40;;;53.10;;
4323;SDS011;2175;51.018;6.994;2022-08-19T06:39:34;56.57;;;48.20;;
4323;SDS011;2175;51.018;6.994;2022-08-19T06:42:03;64.63;;;48.07;;
4323;SDS011;2175;51.018;6.994;2022-08-19T06:44:32;60.03;;;48.97;;
4323;SDS011;2175;51.018;6.994;2022-08-19T06:47:02;59.40;;;48.83;;
4323;SDS011;2175;51.018;6.994;2022-08-19T06:49:29;56.67;;;47.00;;
4323;SDS011;2175;51.018;6.994;2022-08-19T06:51:56;56.77;;;45.63;;
4323;SDS011;2175;51.018;6.994;2022-08-19T06:54:23;52.67;;;44.30;;
4323;SDS011;2175;51.018;6.994;2022-08-19T06:56:50;49.07;;;42.43;;
4323;SDS011;2175;51.018;6.994;2022-08-19T06:59:20;54.27;;;46.47;;
4323;SDS011;2175;51.018;6.994;2022-08-19T07:01:52;53.50;;;44.47;;
4323;SDS011;2175;51.018;6.994;2022-08-19T07:04:20;55.03;;;44.23;;
4323;SDS011;2175;51.018;6.994;2022-08-19T07:06:49;54.03;;;44.50;;
4323;SDS011;2175;51.018;6.994;2022-08-19T07:09:21;47.40;;;38.13;;
4323;SDS011;2175;51.018;6.994;2022-08-19T07:11:48;42.97;;;37.70;;
4323;SDS011;2175;51.018;6.994;2022-08-19T07:14:16;55.13;;;41.93;;
4323;SDS011;2175;51.018;6.994;2022-08-19T07:16:45;49.20;;;40.43;;
4323;SDS011;2175;51.018;6.994;2022-08-19T07:19:12;51.23;;;42.70;;
4323;SDS011;2175;51.018;6.994;2022-08-19T07:21:38;51.47;;;42.40;;
4323;SDS011;2175;51.018;6.994;2022-08-19T07:24:03;42.97;;;36.93;;
4323;SDS011;2175;51.018;6.994;2022-08-19T07:26:30;41.57;;;37.20;;
4323;SDS011;2175;51.018;6.994;2022-08-19T07:28:58;44.47;;;37.73;;
4323;SDS011;2175;51.018;6.994;2022-08-19T07:31:25;51.00;;;39.17;;
4323;SDS011;2175;51.018;6.994;2022-08-19T07:33:52;41.50;;;37.00;;
4323;SDS011;2175;51.018;6.994;2022-08-19T07:36:24;46.43;;;38.20;;
4323;SDS011;2175;51.018;6.994;2022-08-19T07:38:56;40.47;;;35.20;;
4323;SDS011;2175;51.018;6.994;2022-08-19T07:41:23;37.37;;;33.53;;
4323;SDS011;2175;51.018;6.994;2022-08-19T07:43:50;37.83;;;33.70;;
4323;SDS011;2175;51.018;6.994;2022-08-19T07:46:16;52.17;;;37.23;;
4323;SDS011;2175;51.018;6.994;2022-08-19T07:48:43;46.23;;;35.83;;
4323;SDS011;2175;51.018;6.994;2022-08-19T07:51:13;41.60;;;34.50;;
4323;SDS011;2175;51.018;6.994;2022-08-19T07:53:40;47.77;;;36.30;;
4323;SDS011;2175;51.018;6.994;2022-08-19T07:56:06;53.77;;;37.00;;
4323;SDS011;2175;51.018;6.994;2022-08-19T07:58:34;41.10;;;34.10;;
4323;SDS011;2175;51.018;6.994;2022-08-19T08:01:04;39.37;;;34.63;;
4323;SDS011;2175;51.018;6.994;2022-08-19T08:03:31;45.60;;;34.37;;
4323;SDS011;2175;51.018;6.994;2022-08-19T08:06:15;43.77;;;34.40;;
4323;SDS011;2175;51.018;6.994;2022-08-19T08:09:00;43.20;;;33.87;;
4323;SDS011;2175;51.018;6.994;2022-08-19T08:11:56;42.17;;;32.43;;
4323;SDS011;2175;51.018;6.994;2022-08-19T08:14:32;38.23;;;29.30;;
4323;SDS011;2175;51.018;6.994;2022-08-19T08:17:00;35.83;;;31.23;;
4323;SDS011;2175;51.018;6.994;2022-08-19T08:19:26;34.40;;;30.63;;
4323;SDS011;2175;51.018;6.994;2022-08-19T08:21:54;49.03;;;35.40;;
4323;SDS011;2175;51.018;6.994;2022-08-19T08:24:20;37.03;;;31.47;;
4323;SDS011;2175;51.018;6.994;2022-08-19T08:26:46;42.40;;;30.17;;
4323;SDS011;2175;51.018;6.994;2022-08-19T08:29:12;40.53;;;34.27;;
4323;SDS011;2175;51.018;6.994;2022-08-19T08:31:40;49.60;;;37.93;;
4323;SDS011;2175;51.018;6.994;2022-08-19T08:34:07;56.27;;;39.50;;
4323;SDS011;2175;51.018;6.994;2022-08-19T08:36:35;48.03;;;39.50;;
4323;SDS011;2175;51.018;6.994;2022-08-19T08:39:06;42.60;;;36.73;;
4323;SDS011;2175;51.018;6.994;2022-08-19T08:41:43;44.23;;;37.03;;
4323;SDS011;2175;51.018;6.994;2022-08-19T08:44:23;45.33;;;37.07;;
4323;SDS011;2175;51.018;6.994;2022-08-19T08:47:00;44.63;;;37.20;;
4323;SDS011;2175;51.018;6.994;2022-08-19T08:49:45;46.73;;;38.20;;
4323;SDS011;2175;51.018;6.994;2022-08-19T08:52:22;50.20;;;37.77;;
4323;SDS011;2175;51.018;6.994;2022-08-19T08:54:51;50.00;;;36.30;;
4323;SDS011;2175;51.018;6.994;2022-08-19T08:59:58;43.83;;;35.00;;
4323;SDS011;2175;51.018;6.994;2022-08-19T09:02:30;49.23;;;38.57;;
4323;SDS011;2175;51.018;6.994;2022-08-19T09:04:55;48.63;;;39.37;;
4323;SDS011;2175;51.018;6.994;2022-08-19T09:07:41;44.77;;;35.73;;
4323;SDS011;2175;51.018;6.994;2022-08-19T09:16:00;49.40;;;34.00;;
4323;SDS011;2175;51.018;6.994;2022-08-19T09:18:44;43.97;;;36.30;;
4323;SDS011;2175;51.018;6.994;2022-08-19T09:21:17;55.70;;;38.90;;
4323;SDS011;2175;51.018;6.994;2022-08-19T09:23:44;44.47;;;33.17;;
4323;SDS011;2175;51.018;6.994;2022-08-19T09:26:11;48.23;;;37.00;;
4323;SDS011;2175;51.018;6.994;2022-08-19T09:28:39;46.43;;;33.43;;
4323;SDS011;2175;51.018;6.994;2022-08-19T09:31:09;42.10;;;33.77;;
4323;SDS011;2175;51.018;6.994;2022-08-19T09:33:36;41.27;;;31.80;;
4323;SDS011;2175;51.018;6.994;2022-08-19T09:36:06;49.83;;;33.37;;
4323;SDS011;2175;51.018;6.994;2022-08-19T09:38:33;40.10;;;31.67;;
4323;SDS011;2175;51.018;6.994;2022-08-19T09:41:08;33.40;;;27.80;;
4323;SDS011;2175;51.018;6.994;2022-08-19T09:43:39;42.33;;;30.53;;
4323;SDS011;2175;51.018;6.994;2022-08-19T09:46:06;36.93;;;28.10;;
4323;SDS011;2175;51.018;6.994;2022-08-19T09:48:34;46.97;;;29.93;;
4323;SDS011;2175;51.018;6.994;2022-08-19T09:51:04;33.67;;;25.93;;
4323;SDS011;2175;51.018;6.994;2022-08-19T09:53:33;31.77;;;26.40;;
4323;SDS011;2175;51.018;6.994;2022-08-19T09:56:03;33.97;;;27.00;;
4323;SDS011;2175;51.018;6.994;2022-08-19T09:58:30;26.70;;;22.47;;
4323;SDS011;2175;51.018;6.994;2022-08-19T10:00:57;28.37;;;22.40;;
4323;SDS011;2175;51.018;6.994;2022-08-19T10:03:25;22.73;;;20.33;;
4323;SDS011;2175;51.018;6.994;2022-08-19T10:05:52;24.47;;;18.00;;
4323;SDS011;2175;51.018;6.994;2022-08-19T10:08:19;27.53;;;21.90;;
4323;SDS011;2175;51.018;6.994;2022-08-19T10:10:48;26.30;;;21.53;;
4323;SDS011;2175;51.018;6.994;2022-08-19T10:13:15;23.73;;;19.10;;
4323;SDS011;2175;51.018;6.994;2022-08-19T10:15:42;30.10;;;20.50;;
4323;SDS011;2175;51.018;6.994;2022-08-19T10:18:09;22.40;;;18.20;;
4323;SDS011;2175;51.018;6.994;2022-08-19T10:20:35;21.90;;;18.87;;
4323;SDS011;2175;51.018;6.994;2022-08-19T10:23:03;23.90;;;18.70;;
4323;SDS011;2175;51.018;6.994;2022-08-19T10:25:29;22.17;;;17.83;;
4323;SDS011;2175;51.018;6.994;2022-08-19T10:27:56;18.97;;;13.80;;
4323;SDS011;2175;51.018;6.994;2022-08-19T10:30:22;19.60;;;16.10;;
4323;SDS011;2175;51.018;6.994;2022-08-19T10:32:47;22.13;;;16.20;;
4323;SDS011;2175;51.018;6.994;2022-08-19T10:35:13;19.27;;;17.27;;
4323;SDS011;2175;51.018;6.994;2022-08-19T10:37:39;20.37;;;17.13;;
4323;SDS011;2175;51.018;6.994;2022-08-19T10:40:05;21.83;;;15.97;;
4323;SDS011;2175;51.018;6.994;2022-08-19T10:42:33;25.83;;;17.80;;
4323;SDS011;2175;51.018;6.994;2022-08-19T10:44:59;24.03;;;18.80;;
4323;SDS011;2175;51.018;6.994;2022-08-19T10:47:25;17.87;;;14.77;;
4323;SDS011;2175;51.018;6.994;2022-08-19T10:49:51;20.80;;;15.30;;
4323;SDS011;2175;51.018;6.994;2022-08-19T10:52:36;23.30;;;13.67;;
4323;SDS011;2175;51.018;6.994;2022-08-19T10:55:05;18.27;;;14.10;;
4323;SDS011;2175;51.018;6.994;2022-08-19T10:57:50;17.83;;;14.27;;
4323;SDS011;2175;51.018;6.994;2022-08-19T11:00:18;18.87;;;12.27;;
4323;SDS011;2175;51.018;6.994;2022-08-19T11:02:44;16.83;;;13.53;;
4323;SDS011;2175;51.018;6.994;2022-08-19T11:05:10;15.23;;;12.67;;
4323;SDS011;2175;51.018;6.994;2022-08-19T11:07:39;14.13;;;11.90;;
4323;SDS011;2175;51.018;6.994;2022-08-19T11:10:06;15.53;;;11.00;;
4323;SDS011;2175;51.018;6.994;2022-08-19T11:12:33;15.57;;;12.00;;
4323;SDS011;2175;51.018;6.994;2022-08-19T11:15:01;20.13;;;14.60;;
4323;SDS011;2175;51.018;6.994;2022-08-19T11:17:27;20.40;;;15.30;;
4323;SDS011;2175;51.018;6.994;2022-08-19T11:19:52;17.93;;;14.40;;
4323;SDS011;2175;51.018;6.994;2022-08-19T11:22:18;19.70;;;14.37;;
4323;SDS011;2175;51.018;6.994;2022-08-19T11:24:43;22.23;;;14.33;;
4323;SDS011;2175;51.018;6.994;2022-08-19T11:27:09;13.77;;;12.20;;
4323;SDS011;2175;51.018;6.994;2022-08-19T11:29:37;20.60;;;13.37;;
4323;SDS011;2175;51.018;6.994;2022-08-19T11:32:04;16.87;;;10.67;;
4323;SDS011;2175;51.018;6.994;2022-08-19T11:34:31;14.17;;;11.70;;
4323;SDS011;2175;51.018;6.994;2022-08-19T11:36:57;14.17;;;12.03;;
4323;SDS011;2175;51.018;6.994;2022-08-19T11:39:24;13.23;;;11.90;;
4323;SDS011;2175;51.018;6.994;2022-08-19T11:41:51;20.33;;;16.20;;
4323;SDS011;2175;51.018;6.994;2022-08-19T11:44:17;17.40;;;13.13;;
4323;SDS011;2175;51.018;6.994;2022-08-19T11:46:44;14.70;;;12.73;;
4323;SDS011;2175;51.018;6.994;2022-08-19T11:49:11;19.23;;;14.17;;
4323;SDS011;2175;51.018;6.994;2022-08-19T11:51:39;16.00;;;13.33;;
4323;SDS011;2175;51.018;6.994;2022-08-19T11:54:08;13.87;;;12.40;;
4323;SDS011;2175;51.018;6.994;2022-08-19T11:56:36;16.10;;;12.00;;
4323;SDS011;2175;51.018;6.994;2022-08-19T11:59:02;12.93;;;11.60;;
4323;SDS011;2175;51.018;6.994;2022-08-19T12:01:28;15.97;;;14.27;;
4323;SDS011;2175;51.018;6.994;2022-08-19T12:03:54;15.60;;;13.17;;
4323;SDS011;2175;51.018;6.994;2022-08-19T12:06:24;15.30;;;10.93;;
4323;SDS011;2175;51.018;6.994;2022-08-19T12:08:53;15.20;;;12.47;;
4323;SDS011;2175;51.018;6.994;2022-08-19T12:11:24;17.90;;;12.90;;
4323;SDS011;2175;51.018;6.994;2022-08-19T12:13:50;16.00;;;12.57;;
4323;SDS011;2175;51.018;6.994;2022-08-19T12:16:17;12.70;;;11.27;;
4323;SDS011;2175;51.018;6.994;2022-08-19T12:18:45;12.77;;;11.20;;
4323;SDS011;2175;51.018;6.994;2022-08-19T12:21:22;11.70;;;10.20;;
4323;SDS011;2175;51.018;6.994;2022-08-19T12:23:53;12.27;;;10.10;;
4323;SDS011;2175;51.018;6.994;2022-08-19T12:26:20;10.00;;;8.40;;
4323;SDS011;2175;51.018;6.994;2022-08-19T12:28:46;11.17;;;9.67;;
4323;SDS011;2175;51.018;6.994;2022-08-19T12:31:13;10.73;;;9.20;;
4323;SDS011;2175;51.018;6.994;2022-08-19T12:33:39;8.93;;;7.57;;
4323;SDS011;2175;51.018;6.994;2022-08-19T12:36:06;9.57;;;8.37;;
4323;SDS011;2175;51.018;6.994;2022-08-19T12:38:34;11.17;;;8.70;;
4323;SDS011;2175;51.018;6.994;2022-08-19T12:41:00;16.40;;;9.90;;
4323;SDS011;2175;51.018;6.994;2022-08-19T12:43:28;13.07;;;9.20;;
4323;SDS011;2175;51.018;6.994;2022-08-19T12:45:55;15.40;;;10.20;;
4323;SDS011;2175;51.018;6.994;2022-08-19T12:48:20;10.63;;;8.90;;
4323;SDS011;2175;51.018;6.994;2022-08-19T12:50:46;13.87;;;10.00;;
4323;SDS011;2175;51.018;6.994;2022-08-19T12:53:12;14.93;;;10.13;;
4323;SDS011;2175;51.018;6.994;2022-08-19T12:55:38;15.10;;;9.93;;
4323;SDS011;2175;51.018;6.994;2022-08-19T12:58:04;10.73;;;9.27;;
4323;SDS011;2175;51.018;6.994;2022-08-19T13:00:29;10.47;;;9.47;;
4323;SDS011;2175;51.018;6.994;2022-08-19T13:02:57;10.30;;;9.00;;
4323;SDS011;2175;51.018;6.994;2022-08-19T13:05:24;10.90;;;9.07;;
4323;SDS011;2175;51.018;6.994;2022-08-19T13:07:52;9.23;;;8.17;;
4323;SDS011;2175;51.018;6.994;2022-08-19T13:10:21;11.57;;;9.70;;
4323;SDS011;2175;51.018;6.994;2022-08-19T13:12:51;16.73;;;10.17;;
4323;SDS011;2175;51.018;6.994;2022-08-19T13:15:18;11.97;;;8.90;;
4323;SDS011;2175;51.018;6.994;2022-08-19T13:17:46;12.27;;;9.77;;
4323;SDS011;2175;51.018;6.994;2022-08-19T13:20:17;14.70;;;11.00;;
4323;SDS011;2175;51.018;6.994;2022-08-19T13:22:44;11.77;;;9.67;;
4323;SDS011;2175;51.018;6.994;2022-08-19T13:25:11;13.83;;;11.50;;
4323;SDS011;2175;51.018;6.994;2022-08-19T13:27:37;13.10;;;10.27;;
4323;SDS011;2175;51.018;6.994;2022-08-19T13:30:04;13.77;;;10.40;;
4323;SDS011;2175;51.018;6.994;2022-08-19T13:32:50;9.87;;;8.70;;
4323;SDS011;2175;51.018;6.994;2022-08-19T13:35:34;17.20;;;9.27;;
4323;SDS011;2175;51.018;6.994;2022-08-19T13:38:00;13.43;;;9.43;;
4323;SDS011;2175;51.018;6.994;2022-08-19T13:40:30;10.90;;;9.70;;
4323;SDS011;2175;51.018;6.994;2022-08-19T13:42:59;15.83;;;8.70;;
4323;SDS011;2175;51.018;6.994;2022-08-19T13:45:26;10.37;;;8.60;;
4323;SDS011;2175;51.018;6.994;2022-08-19T13:47:53;11.00;;;7.63;;
4323;SDS011;2175;51.018;6.994;2022-08-19T13:50:22;9.90;;;7.57;;
4323;SDS011;2175;51.018;6.994;2022-08-19T13:52:54;13.17;;;9.67;;
4323;SDS011;2175;51.018;6.994;2022-08-19T13:55:21;14.80;;;9.33;;
4323;SDS011;2175;51.018;6.994;2022-08-19T13:57:57;15.00;;;9.13;;
4323;SDS011;2175;51.018;6.994;2022-08-19T14:00:27;12.50;;;7.37;;
4323;SDS011;2175;51.018;6.994;2022-08-19T14:02:55;12.63;;;7.70;;
4323;SDS011;2175;51.018;6.994;2022-08-19T14:05:22;10.93;;;7.67;;
4323;SDS011;2175;51.018;6.994;2022-08-19T14:07:48;17.40;;;7.23;;
4323;SDS011;2175;51.018;6.994;2022-08-19T14:10:14;8.57;;;6.07;;
4323;SDS011;2175;51.018;6.994;2022-08-19T14:12:40;7.27;;;6.50;;
4323;SDS011;2175;51.018;6.994;2022-08-19T14:15:07;8.60;;;6.10;;
4323;SDS011;2175;51.018;6.994;2022-08-19T14:17:34;8.77;;;7.30;;
4323;SDS011;2175;51.018;6.994;2022-08-19T14:20:04;9.70;;;7.60;;
4323;SDS011;2175;51.018;6.994;2022-08-19T14:22:34;13.23;;;8.70;;
4323;SDS011;2175;51.018;6.994;2022-08-19T14:25:02;15.13;;;8.57;;
4323;SDS011;2175;51.018;6.994;2022-08-19T14:27:35;14.33;;;8.17;;
4323;SDS011;2175;51.018;6.994;2022-08-19T14:30:05;10.30;;;7.20;;
4323;SDS011;2175;51.018;6.994;2022-08-19T14:32:33;17.10;;;7.47;;
4323;SDS011;2175;51.018;6.994;2022-08-19T14:34:59;12.50;;;6.97;;
4323;SDS011;2175;51.018;6.994;2022-08-19T14:37:25;12.93;;;7.10;;
4323;SDS011;2175;51.018;6.994;2022-08-19T14:39:51;13.43;;;5.97;;
4323;SDS011;2175;51.018;6.994;2022-08-19T14:42:16;8.43;;;5.10;;
4323;SDS011;2175;51.018;6.994;2022-08-19T14:44:42;10.87;;;5.57;;
4323;SDS011;2175;51.018;6.994;2022-08-19T14:47:08;7.43;;;5.70;;
4323;SDS011;2175;51.018;6.994;2022-08-19T14:49:34;9.53;;;5.97;;
4323;SDS011;2175;51.018;6.994;2022-08-19T14:52:00;8.30;;;5.87;;
4323;SDS011;2175;51.018;6.994;2022-08-19T14:54:26;9.77;;;5.20;;
4323;SDS011;2175;51.018;6.994;2022-08-19T14:56:51;10.37;;;5.83;;
4323;SDS011;2175;51.018;6.994;2022-08-19T14:59:17;9.83;;;6.07;;
4323;SDS011;2175;51.018;6.994;2022-08-19T15:01:43;12.70;;;5.53;;
4323;SDS011;2175;51.018;6.994;2022-08-19T15:04:08;9.10;;;5.90;;
4323;SDS011;2175;51.018;6.994;2022-08-19T15:06:34;8.03;;;5.03;;
4323;SDS011;2175;51.018;6.994;2022-08-19T15:09:00;13.43;;;4.80;;
4323;SDS011;2175;51.018;6.994;2022-08-19T15:11:27;7.57;;;4.70;;
4323;SDS011;2175;51.018;6.994;2022-08-19T15:13:54;5.77;;;4.63;;